Time;durP1;ratioP1;P1;durP2;ratioP2;P2;SDS_P1;SDS_P2;PMS_P1;PMS_P2;Temp;Humidity;BMP_temperature;BMP_pressure;BME280_temperature;BME280_humidity;BME280_pressure;Samples;Min_cycle;Max_cycle;Signal;HPM_P1;HPM_P2
2022/08/20 00:00:56;;;;;;;17.02;11.02;;;;;;;18.91;92.95;101455.34;5067799;28;20032;-67
2022/08/20 00:03:28;;;;;;;14.35;10.65;;;;;;;18.93;92.08;101458.84;5065161;28;20085;-67
2022/08/20 00:06:00;;;;;;;17.13;10.48;;;;;;;18.94;91.58;101451.44;5066406;28;20497;-67
2022/08/20 00:08:26;;;;;;;13.88;10.05;;;;;;;18.93;92.18;101449.66;5066591;28;20097;-68
2022/08/20 00:10:53;;;;;;;15.52;9.52;;;;;;;18.92;92.24;101447.94;5065860;28;20028;-68
2022/08/20 00:13:28;;;;;;;16.20;10.70;;;;;;;18.90;92.34;101445.34;5067512;28;20028;-67
2022/08/20 00:15:54;;;;;;;15.65;9.43;;;;;;;18.92;91.92;101451.56;5066192;28;20449;-68
2022/08/20 00:18:21;;;;;;;15.20;10.40;;;;;;;18.94;91.59;101444.03;5066273;28;20056;-67
2022/08/20 00:20:50;;;;;;;14.02;10.27;;;;;;;18.96;91.25;101449.38;5066431;28;20036;-67
2022/08/20 00:23:17;;;;;;;14.30;9.05;;;;;;;18.97;91.53;101443.72;5079509;28;20125;-68
2022/08/20 00:25:43;;;;;;;12.75;9.60;;;;;;;18.97;90.61;101437.31;5067756;28;20525;-67
2022/08/20 00:28:08;;;;;;;13.32;9.30;;;;;;;18.96;91.57;101438.34;5067042;28;20041;-66
2022/08/20 00:30:35;;;;;;;13.65;9.65;;;;;;;18.96;92.04;101436.47;5066580;28;20040;-68
2022/08/20 00:33:05;;;;;;;14.75;9.70;;;;;;;18.96;91.64;101436.47;5066811;28;20052;-67
2022/08/20 00:35:32;;;;;;;16.23;10.13;;;;;;;18.97;90.87;101437.31;5065066;28;20520;-67
2022/08/20 00:37:58;;;;;;;15.80;9.35;;;;;;;18.98;91.37;101436.31;5065768;28;20086;-66
2022/08/20 00:40:31;;;;;;;12.65;9.75;;;;;;;18.97;91.77;101440.94;5063721;28;20558;-67
2022/08/20 00:42:59;;;;;;;14.82;10.02;;;;;;;18.98;91.99;101439.06;5066582;28;20055;-67
2022/08/20 00:45:28;;;;;;;14.32;10.18;;;;;;;18.97;92.23;101434.56;5080886;28;20523;-68
2022/08/20 00:47:54;;;;;;;18.40;9.70;;;;;;;18.97;91.99;101432.69;5074973;28;20044;-68
2022/08/20 00:50:41;;;;;;;16.27;9.98;;;;;;;18.96;91.07;101436.47;5066123;28;20424;-68
2022/08/20 00:53:07;;;;;;;11.80;9.90;;;;;;;18.97;91.32;101434.56;5064258;28;20551;-68
2022/08/20 00:55:34;;;;;;;15.18;10.98;;;;;;;18.94;92.22;101441.28;5064246;28;20082;-68
2022/08/20 00:58:06;;;;;;;17.77;11.90;;;;;;;18.92;93.18;101439.66;5066457;28;20150;-68
2022/08/20 01:00:37;;;;;;;16.77;10.73;;;;;;;18.93;92.48;101442.31;5066682;28;20045;-67
2022/08/20 01:03:08;;;;;;;14.63;10.65;;;;;;;18.93;91.95;101431.28;5062969;28;20083;-67
2022/08/20 01:05:35;;;;;;;14.23;10.20;;;;;;;18.94;91.96;101438.50;5065494;28;20085;-67
2022/08/20 01:08:01;;;;;;;16.38;11.43;;;;;;;18.95;92.25;101439.38;5064439;28;20440;-68
2022/08/20 01:10:31;;;;;;;14.23;11.00;;;;;;;18.95;91.67;101442.13;5063881;28;20032;-67
2022/08/20 01:12:58;;;;;;;17.42;11.80;;;;;;;18.94;92.36;101438.50;5066323;28;20052;-68
2022/08/20 01:15:27;;;;;;;14.30;10.15;;;;;;;18.92;91.69;101440.53;5066514;28;20037;-68
2022/08/20 01:17:59;;;;;;;14.68;11.25;;;;;;;18.91;92.98;101438.81;5063695;28;20040;-67
2022/08/20 01:20:31;;;;;;;18.02;12.95;;;;;;;18.89;92.58;101435.34;5075152;28;20421;-67
2022/08/20 01:25:44;;;;;;;20.52;11.52;;;;;;;18.89;93.25;101443.63;5063632;28;20040;-69
2022/08/20 01:28:12;;;;;;;16.55;11.13;;;;;;;18.85;93.36;101443.03;5066414;28;20448;-67
2022/08/20 01:30:38;;;;;;;16.27;11.15;;;;;;;18.85;93.54;101450.44;5066686;28;20096;-68
2022/08/20 01:33:04;;;;;;;19.02;11.65;;;;;;;18.89;92.39;101448.25;5066234;28;20028;-68
2022/08/20 01:35:35;;;;;;;14.68;10.77;;;;;;;18.89;93.41;101440.84;5064974;28;20032;-68
2022/08/20 01:38:00;;;;;;;17.45;10.05;;;;;;;18.88;93.26;101443.75;5068190;28;20040;-67
2022/08/20 01:41:00;;;;;;;15.60;11.73;;;;;;;18.88;92.71;101441.00;5067470;28;20489;-67
2022/08/20 01:43:26;;;;;;;16.67;12.10;;;;;;;18.84;93.01;101438.56;5065925;28;20036;-67
2022/08/20 01:45:52;;;;;;;19.73;12.98;;;;;;;18.80;94.05;101436.25;5065820;28;20021;-68
2022/08/20 01:48:18;;;;;;;21.80;13.10;;;;;;;18.75;93.84;101433.06;5073524;28;20114;-67
2022/08/20 01:50:54;;;;;;;17.10;12.07;;;;;;;18.75;93.98;101441.34;5065393;28;20016;-68
2022/08/20 01:53:27;;;;;;;18.90;12.38;;;;;;;18.72;93.27;101439.75;5064397;28;20036;-68
2022/08/20 01:55:52;;;;;;;15.95;11.70;;;;;;;18.70;92.60;101441.78;5058844;28;20056;-68
2022/08/20 01:58:18;;;;;;;17.35;12.10;;;;;;;18.68;93.50;101441.03;5067376;28;20040;-68
2022/08/20 02:00:44;;;;;;;20.00;12.65;;;;;;;18.67;93.63;101446.69;5065018;28;20024;-68
2022/08/20 02:03:09;;;;;;;19.88;12.65;;;;;;;18.64;93.41;101446.97;5065404;28;20052;-68
2022/08/20 02:05:34;;;;;;;17.80;12.45;;;;;;;18.63;92.91;101442.50;5059989;28;20028;-69
2022/08/20 02:08:01;;;;;;;25.38;13.50;;;;;;;18.60;93.85;101447.28;5042931;28;20033;-68
2022/08/20 02:10:30;;;;;;;21.83;13.40;;;;;;;18.58;93.68;101445.69;5061792;28;20044;-68
2022/08/20 02:12:55;;;;;;;19.98;10.95;;;;;;;18.59;92.63;101448.28;5064058;28;20036;-69
2022/08/20 02:15:21;;;;;;;19.10;12.70;;;;;;;18.57;93.79;101447.59;5070718;28;20078;-68
2022/08/20 02:17:47;;;;;;;19.60;11.88;;;;;;;18.56;93.41;101450.50;5065169;28;20029;-69
2022/08/20 02:20:16;;;;;;;20.38;12.50;;;;;;;18.54;93.89;101444.25;5063874;28;20044;-68
2022/08/20 02:22:52;;;;;;;22.20;12.88;;;;;;;18.54;94.07;101444.25;5064164;28;20047;-68
2022/08/20 02:25:19;;;;;;;23.00;13.65;;;;;;;18.52;94.61;101452.69;5062803;28;20640;-69
2022/08/20 02:27:47;;;;;;;22.55;12.73;;;;;;;18.52;94.54;101457.31;5074913;28;20630;-69
2022/08/20 02:30:19;;;;;;;22.38;13.65;;;;;;;18.52;94.75;101444.41;5086195;28;20164;-68
2022/08/20 02:32:45;;;;;;;26.92;14.75;;;;;;;18.51;94.13;101450.94;5085511;28;20120;-69
2022/08/20 02:35:12;;;;;;;25.17;14.15;;;;;;;18.48;94.63;101444.84;5071483;28;20068;-68
2022/08/20 02:37:40;;;;;;;32.42;16.77;;;;;;;18.44;94.59;101444.28;5064080;28;20044;-68
2022/08/20 02:40:08;;;;;;;22.50;14.45;;;;;;;18.45;94.25;101445.13;5062689;28;20036;-68
2022/08/20 02:42:35;;;;;;;26.13;15.50;;;;;;;18.45;94.32;101456.16;5064900;28;20044;-68
2022/08/20 02:45:01;;;;;;;28.45;17.67;;;;;;;18.43;94.69;101450.81;5046350;28;20078;-68
2022/08/20 02:47:26;;;;;;;24.42;16.52;;;;;;;18.44;95.03;101459.94;5064664;28;20036;-68
2022/08/20 02:49:53;;;;;;;31.98;18.30;;;;;;;18.42;94.79;101456.44;5064100;28;20024;-69
2022/08/20 02:52:19;;;;;;;28.20;17.13;;;;;;;18.40;94.72;101461.25;5063712;28;20202;-68
2022/08/20 02:54:45;;;;;;;26.00;16.45;;;;;;;18.40;94.54;101459.34;5061334;28;20455;-69
2022/08/20 02:57:19;;;;;;;27.98;17.73;;;;;;;18.40;94.72;101458.50;5065707;28;20086;-69
2022/08/20 02:59:45;;;;;;;38.50;18.48;;;;;;;18.40;94.83;101462.09;5065565;28;20496;-69
2022/08/20 03:02:10;;;;;;;32.10;19.13;;;;;;;18.41;94.85;101465.72;5065354;28;20430;-68
2022/08/20 03:04:36;;;;;;;36.50;17.23;;;;;;;18.40;94.12;101470.38;5064351;28;20040;-68
2022/08/20 03:07:04;;;;;;;29.45;17.60;;;;;;;18.41;94.60;101458.31;5063831;28;20074;-68
2022/08/20 03:09:29;;;;;;;30.17;17.48;;;;;;;18.38;94.14;101466.03;5065330;28;20502;-69
2022/08/20 03:11:55;;;;;;;34.47;19.05;;;;;;;18.32;94.58;101453.69;5068262;28;20036;-68
2022/08/20 03:14:20;;;;;;;28.95;18.17;;;;;;;18.34;94.68;101457.19;5068577;28;20029;-68
2022/08/20 03:16:46;;;;;;;34.08;19.50;;;;;;;18.31;94.36;101455.59;5067192;28;20122;-70
2022/08/20 03:19:12;;;;;;;34.65;19.67;;;;;;;18.31;94.73;101463.84;5068993;28;20024;-68
2022/08/20 03:21:38;;;;;;;37.83;20.25;;;;;;;18.29;94.53;101460.38;5066557;28;20460;-68
2022/08/20 03:24:04;;;;;;;30.95;18.58;;;;;;;18.30;94.29;101458.50;5065895;28;20114;-68
2022/08/20 03:26:29;;;;;;;37.10;21.13;;;;;;;18.30;94.40;101455.75;5066456;28;20045;-69
2022/08/20 03:28:54;;;;;;;37.00;21.92;;;;;;;18.27;94.42;101456.03;5068298;28;20039;-68
2022/08/20 03:31:20;;;;;;;35.05;20.58;;;;;;;18.25;94.50;101458.06;5068372;28;20033;-68
2022/08/20 03:33:45;;;;;;;40.17;20.63;;;;;;;18.24;93.89;101465.47;5067986;28;20051;-68
2022/08/20 03:36:10;;;;;;;41.30;22.75;;;;;;;18.22;94.38;101461.97;5066490;28;20763;-68
2022/08/20 03:38:36;;;;;;;38.78;20.95;;;;;;;18.25;94.33;101460.81;5066810;28;20024;-69
2022/08/20 03:41:02;;;;;;;47.40;20.98;;;;;;;18.24;94.01;101459.97;5066076;28;20040;-68
2022/08/20 03:43:28;;;;;;;40.45;24.08;;;;;;;18.24;94.72;101470.13;5068102;28;20107;-68
2022/08/20 03:45:53;;;;;;;40.38;24.10;;;;;;;18.23;94.79;101474.75;5068125;28;20056;-68
2022/08/20 03:48:20;;;;;;;38.95;22.20;;;;;;;18.24;93.95;101475.63;5067749;28;20021;-69
2022/08/20 03:50:47;;;;;;;41.15;24.25;;;;;;;18.22;94.47;101472.13;5065766;28;20036;-69
2022/08/20 03:53:13;;;;;;;40.17;23.60;;;;;;;18.22;94.69;101466.63;5065619;28;20055;-68
2022/08/20 03:55:40;;;;;;;45.95;23.65;;;;;;;18.23;94.26;101466.50;5065647;28;20037;-68
2022/08/20 03:58:08;;;;;;;43.47;24.13;;;;;;;18.20;94.31;101469.53;5067870;28;20044;-68
2022/08/20 04:00:55;;;;;;;44.50;25.50;;;;;;;18.19;93.96;101467.78;5066976;28;20123;-68
2022/08/20 04:03:22;;;;;;;42.80;24.83;;;;;;;18.16;93.88;101475.47;5066695;28;20053;-68
2022/08/20 04:05:48;;;;;;;43.00;24.77;;;;;;;18.12;94.20;101474.00;5066590;28;20419;-68
2022/08/20 04:08:17;;;;;;;44.60;25.08;;;;;;;18.10;93.45;101480.53;5066699;28;20067;-68
2022/08/20 04:10:45;;;;;;;48.47;26.05;;;;;;;18.05;93.67;101469.09;5065993;28;20051;-68
2022/08/20 04:13:11;;;;;;;47.60;24.23;;;;;;;18.05;93.97;101490.25;5067867;28;20043;-68
2022/08/20 04:15:36;;;;;;;40.72;23.15;;;;;;;18.01;93.78;101481.41;5067775;28;20052;-68
2022/08/20 04:18:06;;;;;;;44.85;22.85;;;;;;;18.00;93.67;101481.53;5066049;28;20064;-69
2022/08/20 04:20:33;;;;;;;38.25;22.50;;;;;;;17.98;93.41;101481.69;5065837;28;20021;-68
2022/08/20 04:22:59;;;;;;;39.55;22.02;;;;;;;17.96;92.85;101488.38;5065770;28;20089;-68
2022/08/20 04:25:24;;;;;;;47.10;21.95;;;;;;;17.95;93.13;101493.00;5064883;28;20082;-68
2022/08/20 04:27:50;;;;;;;39.40;22.27;;;;;;;17.91;93.29;101490.69;5066631;28;20051;-67
2022/08/20 04:30:18;;;;;;;36.03;20.60;;;;;;;17.91;93.55;101498.94;5067462;28;20074;-68
2022/08/20 04:32:44;;;;;;;33.53;20.05;;;;;;;17.91;93.02;101498.94;5066501;28;20127;-68
2022/08/20 04:35:13;;;;;;;35.67;19.17;;;;;;;17.88;92.72;101499.22;5066986;28;20476;-67
2022/08/20 04:37:39;;;;;;;37.15;19.88;;;;;;;17.83;92.92;101496.88;5066374;28;20448;-68
2022/08/20 04:42:52;;;;;;;32.10;18.15;;;;;;;17.83;93.12;101508.75;5066871;28;20033;-68
2022/08/20 04:45:18;;;;;;;31.50;17.95;;;;;;;17.77;92.76;101512.09;5065318;28;20033;-68
2022/08/20 04:47:43;;;;;;;32.42;18.95;;;;;;;17.74;92.81;101515.13;5067054;28;20048;-69
2022/08/20 04:50:10;;;;;;;31.05;18.73;;;;;;;17.71;93.34;101517.25;5064885;28;20091;-68
2022/08/20 04:52:36;;;;;;;34.75;18.60;;;;;;;17.70;92.91;101516.38;5063828;28;20047;-68
2022/08/20 04:55:03;;;;;;;27.45;17.80;;;;;;;17.68;93.25;101518.41;5064372;28;20028;-69
2022/08/20 04:57:28;;;;;;;34.75;17.48;;;;;;;17.66;93.29;101522.31;5066629;28;20036;-68
2022/08/20 04:59:54;;;;;;;33.47;16.55;;;;;;;17.68;92.82;101525.81;5068119;28;20044;-68
2022/08/20 05:02:20;;;;;;;32.10;17.77;;;;;;;17.67;93.06;101524.91;5086476;28;20082;-68
2022/08/20 05:04:46;;;;;;;27.15;16.60;;;;;;;17.69;92.90;101538.53;5072195;28;20083;-69
2022/08/20 05:07:13;;;;;;;30.80;17.67;;;;;;;17.69;92.60;101535.78;5045671;28;20040;-68
2022/08/20 05:09:42;;;;;;;30.65;16.60;;;;;;;17.71;92.51;101537.38;5051760;28;20115;-68
2022/08/20 05:12:08;;;;;;;36.30;18.05;;;;;;;17.70;92.29;101543.03;5066610;28;20103;-68
2022/08/20 05:14:33;;;;;;;31.38;18.88;;;;;;;17.69;92.41;101531.16;5066297;28;20074;-68
2022/08/20 05:17:04;;;;;;;32.80;18.13;;;;;;;17.69;93.01;101535.78;5065814;28;20033;-68
2022/08/20 05:19:30;;;;;;;41.60;20.15;;;;;;;17.65;92.84;101537.94;5068961;28;20555;-67
2022/08/20 05:21:55;;;;;;;43.47;19.67;;;;;;;17.65;92.93;101542.59;5067524;28;20103;-69
2022/08/20 05:24:20;;;;;;;38.55;19.88;;;;;;;17.64;92.59;101540.84;5073135;28;20039;-69
2022/08/20 05:26:46;;;;;;;32.47;20.02;;;;;;;17.63;92.34;101539.13;5061657;28;20047;-68
2022/08/20 05:29:11;;;;;;;37.10;21.45;;;;;;;17.62;93.56;101549.22;5048131;28;20029;-68
2022/08/20 05:31:38;;;;;;;35.83;21.10;;;;;;;17.61;92.87;101550.25;5058996;28;20479;-68
2022/08/20 05:34:08;;;;;;;33.80;20.65;;;;;;;17.61;93.32;101553.00;5064353;28;20462;-68
2022/08/20 05:36:35;;;;;;;40.05;21.38;;;;;;;17.65;93.19;101546.19;5064535;28;20094;-67
2022/08/20 05:39:00;;;;;;;38.35;22.45;;;;;;;17.69;92.89;101550.41;5061801;28;20029;-68
2022/08/20 05:41:28;;;;;;;43.33;23.50;;;;;;;17.74;92.50;101544.53;5063973;28;20086;-67
2022/08/20 05:43:53;;;;;;;41.42;22.98;;;;;;;17.76;92.50;101554.38;5062868;28;20033;-68
2022/08/20 05:46:18;;;;;;;44.78;24.10;;;;;;;17.80;92.87;101541.19;5063709;28;20047;-67
2022/08/20 05:48:44;;;;;;;43.95;23.58;;;;;;;17.87;92.56;101556.16;5065128;28;20051;-67
2022/08/20 05:51:09;;;;;;;37.38;23.63;;;;;;;17.90;92.34;101555.84;5062867;28;20113;-67
2022/08/20 05:53:36;;;;;;;41.58;24.25;;;;;;;17.95;93.16;101560.94;5060259;28;20029;-68
2022/08/20 05:56:02;;;;;;;45.20;25.05;;;;;;;17.95;92.56;101560.94;5062933;28;20093;-68
2022/08/20 05:58:31;;;;;;;38.70;25.92;;;;;;;17.96;92.30;101562.72;5064806;28;20047;-68
2022/08/20 06:00:57;;;;;;;51.88;25.50;;;;;;;17.97;92.43;101558.94;5063630;28;20751;-68
2022/08/20 06:06:08;;;;;;;48.28;27.20;;;;;;;18.04;92.06;101566.47;5062114;28;20488;-68
2022/08/20 06:08:33;;;;;;;49.25;26.30;;;;;;;18.08;92.13;101567.94;5063910;28;20021;-68
2022/08/20 06:10:59;;;;;;;48.35;27.58;;;;;;;18.07;92.79;101565.31;5063252;28;20039;-68
2022/08/20 06:13:26;;;;;;;43.53;27.02;;;;;;;18.10;91.78;101570.56;5060308;28;20041;-68
2022/08/20 06:15:51;;;;;;;45.95;25.52;;;;;;;18.15;91.94;101573.75;5055070;28;20044;-69
2022/08/20 06:18:17;;;;;;;41.67;26.23;;;;;;;18.19;92.28;101566.09;5064953;28;20032;-69
2022/08/20 06:20:44;;;;;;;50.10;26.40;;;;;;;18.21;91.99;101569.56;5064893;28;20044;-69
2022/08/20 06:23:10;;;;;;;52.95;27.08;;;;;;;18.21;91.81;101569.56;5061824;28;20043;-68
2022/08/20 06:25:35;;;;;;;53.38;26.75;;;;;;;18.19;91.75;101572.47;5059872;28;20029;-68
2022/08/20 06:28:02;;;;;;;43.65;26.20;;;;;;;18.19;91.84;101577.09;5043787;28;20407;-68
2022/08/20 06:30:27;;;;;;;44.08;26.23;;;;;;;18.17;92.51;101563.44;5045609;28;20484;-69
2022/08/20 06:32:53;;;;;;;50.55;26.70;;;;;;;18.24;92.25;101563.75;5053461;28;20123;-69
2022/08/20 06:35:18;;;;;;;49.53;25.65;;;;;;;18.35;91.88;101566.38;5064223;28;20408;-69
2022/08/20 06:37:43;;;;;;;46.15;25.67;;;;;;;18.41;92.25;101562.16;5065698;28;20086;-68
2022/08/20 06:40:13;;;;;;;51.05;26.35;;;;;;;18.43;92.51;101563.78;5067030;28;20110;-68
2022/08/20 06:42:42;;;;;;;42.78;25.42;;;;;;;18.52;91.05;101573.94;5045722;28;20064;-69
2022/08/20 06:45:13;;;;;;;50.92;24.35;;;;;;;18.57;91.09;101574.34;5048742;28;20457;-69
2022/08/20 06:47:43;;;;;;;49.85;25.67;;;;;;;18.58;91.62;101576.09;5049718;28;20044;-68
2022/08/20 06:50:12;;;;;;;49.42;25.20;;;;;;;18.64;91.34;101566.38;5066937;28;20063;-69
2022/08/20 06:52:39;;;;;;;45.47;24.65;;;;;;;18.68;90.71;101573.34;5067295;28;20113;-68
2022/08/20 06:55:07;;;;;;;48.28;25.23;;;;;;;18.70;90.92;101567.69;5065392;28;20068;-68
2022/08/20 06:57:33;;;;;;;49.58;24.33;;;;;;;18.77;91.10;101569.72;5069100;28;20502;-68
2022/08/20 06:59:59;;;;;;;50.22;24.15;;;;;;;18.79;89.74;101570.47;5089157;28;20067;-69
2022/08/20 07:02:24;;;;;;;45.70;23.90;;;;;;;18.88;90.49;101570.59;5080778;28;20125;-69
2022/08/20 07:04:49;;;;;;;38.80;23.35;;;;;;;18.92;89.70;101581.16;5068968;28;20032;-68
2022/08/20 07:07:16;;;;;;;41.78;22.67;;;;;;;19.00;89.46;101580.44;5066785;28;20055;-69
2022/08/20 07:09:42;;;;;;;46.22;23.52;;;;;;;19.02;89.73;101579.25;5062792;28;20506;-68
2022/08/20 07:12:09;;;;;;;45.35;23.63;;;;;;;19.04;89.38;101585.50;5068711;28;20029;-69
2022/08/20 07:14:35;;;;;;;37.90;22.52;;;;;;;19.13;89.62;101577.38;5068703;28;20045;-68
2022/08/20 07:17:04;;;;;;;41.95;23.95;;;;;;;19.19;90.20;101576.78;5066995;28;20028;-69
2022/08/20 07:19:30;;;;;;;41.83;22.90;;;;;;;19.18;89.29;101580.56;5067339;28;20044;-69
2022/08/20 07:21:56;;;;;;;38.53;22.40;;;;;;;19.25;89.46;101584.44;5066675;28;20032;-69
2022/08/20 07:24:21;;;;;;;41.15;22.88;;;;;;;19.36;88.06;101590.66;5066515;28;20036;-69
2022/08/20 07:26:48;;;;;;;31.77;20.25;;;;;;;19.47;87.69;101595.13;5067581;28;20173;-69
2022/08/20 07:29:13;;;;;;;30.42;19.58;;;;;;;19.52;87.11;101592.78;5068959;28;20040;-68
2022/08/20 07:34:22;;;;;;;35.65;20.88;;;;;;;19.54;87.88;101606.44;5067677;28;20367;-68
2022/08/20 07:36:49;;;;;;;37.22;21.70;;;;;;;19.67;87.78;101612.50;5066915;28;20043;-68
2022/08/20 07:39:14;;;;;;;31.95;19.92;;;;;;;19.66;86.36;101610.78;5064833;28;20048;-70
2022/08/20 07:41:39;;;;;;;28.83;20.58;;;;;;;19.71;87.30;101607.56;5068109;28;20040;-68
2022/08/20 07:44:05;;;;;;;32.05;19.80;;;;;;;19.77;86.93;101609.69;5067274;28;20036;-68
2022/08/20 07:46:31;;;;;;;29.08;18.95;;;;;;;19.82;86.84;101607.38;5068139;28;20420;-69
2022/08/20 07:48:56;;;;;;;27.70;18.42;;;;;;;19.93;86.17;101617.34;5066569;28;20325;-70
2022/08/20 07:51:21;;;;;;;28.33;19.63;;;;;;;20.00;85.42;101616.56;5066997;28;20052;-68
2022/08/20 07:53:48;;;;;;;25.05;18.73;;;;;;;20.15;85.30;101614.16;5063768;28;20089;-70
2022/08/20 07:56:18;;;;;;;27.90;17.83;;;;;;;20.27;84.44;101623.09;5047882;28;20029;-69
2022/08/20 07:58:50;;;;;;;34.13;17.38;;;;;;;20.26;83.50;101621.38;5049633;28;20021;-69
2022/08/20 08:01:18;;;;;;;25.15;18.15;;;;;;;20.26;83.64;101636.03;5067725;28;20040;-69
2022/08/20 08:03:44;;;;;;;24.90;15.70;;;;;;;20.30;83.34;101628.31;5067051;28;20025;-69
2022/08/20 08:06:10;;;;;;;26.70;16.40;;;;;;;20.42;83.18;101632.59;5067065;28;20043;-69
2022/08/20 08:08:37;;;;;;;29.50;17.60;;;;;;;20.41;81.00;101633.63;5065421;28;20040;-69
2022/08/20 08:11:03;;;;;;;24.85;16.75;;;;;;;20.43;82.05;101634.34;5065312;28;20051;-68
2022/08/20 08:13:37;;;;;;;24.17;15.43;;;;;;;20.55;82.18;101641.41;5066215;28;20032;-69
2022/08/20 08:16:05;;;;;;;24.90;14.18;;;;;;;20.68;79.43;101640.16;5066550;28;20423;-69
2022/08/20 08:18:37;;;;;;;19.73;12.15;;;;;;;20.97;80.06;101640.78;5067363;28;20181;-69
2022/08/20 08:21:04;;;;;;;22.92;14.30;;;;;;;21.26;80.57;101646.00;5066459;28;20041;-69
2022/08/20 08:23:30;;;;;;;23.95;13.73;;;;;;;21.55;79.40;101648.53;5065924;28;20060;-68
2022/08/20 08:25:56;;;;;;;19.17;11.57;;;;;;;21.76;74.92;101645.34;5063871;28;20466;-69
2022/08/20 08:28:21;;;;;;;17.70;11.85;;;;;;;22.17;75.93;101641.94;5067372;28;20043;-69
2022/08/20 08:30:47;;;;;;;20.90;10.93;;;;;;;22.34;72.69;101649.28;5065262;28;20021;-69
2022/08/20 08:33:28;;;;;;;20.45;11.00;;;;;;;22.19;74.17;101649.03;5067515;28;20078;-69
2022/08/20 08:36:04;;;;;;;16.95;10.93;;;;;;;22.35;74.79;101648.25;5066100;28;20036;-70
2022/08/20 08:38:33;;;;;;;19.42;10.30;;;;;;;22.72;71.82;101641.41;5066011;28;20028;-68
2022/08/20 08:41:11;;;;;;;17.27;10.15;;;;;;;22.55;68.37;101648.81;5065010;28;20415;-69
2022/08/20 08:43:37;;;;;;;19.15;10.88;;;;;;;22.58;69.66;101645.69;5067045;28;20032;-69
2022/08/20 08:46:06;;;;;;;15.85;9.63;;;;;;;22.86;70.06;101652.69;5065717;28;20177;-68
2022/08/20 08:48:36;;;;;;;16.08;10.30;;;;;;;23.16;69.48;101651.16;5065640;28;20055;-69
2022/08/20 08:51:06;;;;;;;20.42;9.57;;;;;;;23.97;69.70;101652.09;5065944;28;20079;-68
2022/08/20 08:53:37;;;;;;;14.77;8.52;;;;;;;23.97;63.77;101652.09;5065412;28;20036;-70
2022/08/20 08:56:05;;;;;;;20.38;8.75;;;;;;;23.75;63.43;101662.03;5059680;28;20033;-69
2022/08/20 08:58:32;;;;;;;12.15;7.95;;;;;;;23.65;67.58;101658.59;5046758;28;20449;-68
2022/08/20 09:01:01;;;;;;;17.85;8.32;;;;;;;23.64;66.99;101646.63;5046948;28;20049;-68
2022/08/20 09:03:32;;;;;;;13.68;8.52;;;;;;;23.99;67.56;101666.66;5061725;28;20049;-69
2022/08/20 09:05:59;;;;;;;15.45;8.75;;;;;;;24.26;66.47;101659.78;5060295;28;20468;-68
2022/08/20 09:08:32;;;;;;;15.45;9.90;;;;;;;24.54;65.65;101662.97;5065232;28;20043;-69
2022/08/20 09:11:03;;;;;;;20.92;10.88;;;;;;;24.68;64.27;101667.75;5063346;28;20036;-68
2022/08/20 09:13:29;;;;;;;19.45;10.98;;;;;;;24.40;63.99;101663.75;5066426;28;20044;-69
2022/08/20 09:15:54;;;;;;;19.02;10.15;;;;;;;24.11;62.79;101664.38;5066483;28;20356;-69
2022/08/20 09:18:19;;;;;;;16.27;9.32;;;;;;;24.07;64.59;101660.22;5064876;28;20122;-69
2022/08/20 09:20:45;;;;;;;17.98;9.77;;;;;;;24.09;62.48;101664.53;5065592;28;20033;-69
2022/08/20 09:23:10;;;;;;;16.70;10.02;;;;;;;24.33;65.60;101659.91;5064971;28;20025;-69
2022/08/20 09:25:36;;;;;;;16.08;8.77;;;;;;;24.57;66.25;101668.16;5065570;28;20036;-70
2022/08/20 09:28:01;;;;;;;16.83;9.38;;;;;;;24.71;62.34;101660.94;5078018;28;20072;-68
2022/08/20 09:30:27;;;;;;;16.20;8.32;;;;;;;25.05;63.87;101656.88;5071041;28;20086;-68
2022/08/20 09:32:52;;;;;;;16.67;9.30;;;;;;;24.65;62.14;101659.75;5064651;28;20515;-70
2022/08/20 09:35:18;;;;;;;14.95;9.02;;;;;;;24.58;64.96;101657.91;5064801;28;20040;-69
2022/08/20 09:37:43;;;;;;;17.55;8.95;;;;;;;24.70;63.26;101656.41;5064097;28;20048;-69
2022/08/20 09:40:09;;;;;;;12.30;8.68;;;;;;;25.00;63.76;101651.88;5063583;28;20048;-69
2022/08/20 09:42:37;;;;;;;14.15;7.25;;;;;;;25.29;61.12;101653.91;5065946;28;20090;-69
2022/08/20 09:45:03;;;;;;;13.50;6.20;;;;;;;25.22;58.21;101658.47;5064775;28;20064;-69
2022/08/20 09:47:28;;;;;;;17.52;7.00;;;;;;;25.15;57.72;101658.38;5065548;28;20317;-70
2022/08/20 09:49:54;;;;;;;9.20;5.97;;;;;;;25.41;60.66;101649.63;5064824;28;20130;-70
2022/08/20 09:52:25;;;;;;;13.45;7.18;;;;;;;25.25;57.75;101648.91;5063067;28;20060;-69
2022/08/20 09:54:56;;;;;;;11.82;6.20;;;;;;;25.56;60.65;101652.44;5063617;28;20044;-70
2022/08/20 09:57:22;;;;;;;10.23;6.00;;;;;;;25.70;54.87;101653.50;5077611;28;20115;-69
2022/08/20 09:59:53;;;;;;;10.85;4.57;;;;;;;25.65;51.99;101651.28;5065894;28;20369;-70
2022/08/20 10:02:18;;;;;;;10.32;5.47;;;;;;;25.86;55.76;101656.13;5064177;28;20048;-69
2022/08/20 10:04:44;;;;;;;11.57;5.10;;;;;;;26.09;56.82;101652.38;5069822;28;20104;-70
2022/08/20 10:07:09;;;;;;;10.63;5.30;;;;;;;26.13;51.31;101654.59;5064220;28;20033;-70
2022/08/20 10:09:35;;;;;;;12.65;5.70;;;;;;;25.97;49.17;101653.91;5063662;28;20033;-70
2022/08/20 10:12:01;;;;;;;11.80;5.28;;;;;;;26.10;56.03;101652.16;5064462;28;20055;-70
2022/08/20 10:14:27;;;;;;;17.95;6.07;;;;;;;26.21;49.18;101656.41;5065538;28;20040;-70
2022/08/20 10:17:00;;;;;;;10.50;4.47;;;;;;;26.52;54.94;101647.81;5063678;28;20068;-70
2022/08/20 10:19:27;;;;;;;20.95;5.05;;;;;;;26.61;54.44;101655.00;5064494;28;20036;-70
2022/08/20 10:21:53;;;;;;;8.80;4.00;;;;;;;26.90;54.36;101644.78;5063916;28;20041;-71
2022/08/20 10:24:20;;;;;;;10.15;3.90;;;;;;;27.17;52.24;101648.72;5063105;28;20118;-71
2022/08/20 10:26:46;;;;;;;10.68;4.28;;;;;;;27.42;49.50;101651.97;5064454;28;20089;-71
2022/08/20 10:29:12;;;;;;;9.52;4.53;;;;;;;27.69;52.03;101642.69;5065878;28;20115;-71
2022/08/20 10:31:37;;;;;;;6.55;3.97;;;;;;;27.53;50.88;101648.63;5065632;28;20028;-70
2022/08/20 10:34:02;;;;;;;7.65;3.05;;;;;;;26.98;46.55;101657.75;5063775;28;20472;-70
2022/08/20 10:36:28;;;;;;;7.97;3.28;;;;;;;26.48;50.46;101660.41;5064345;28;20036;-71
2022/08/20 10:38:53;;;;;;;11.48;2.92;;;;;;;26.02;50.12;101662.56;5063856;28;20040;-70
2022/08/20 10:41:20;;;;;;;8.48;3.28;;;;;;;25.73;52.08;101664.25;5063591;28;20480;-70
2022/08/20 10:43:45;;;;;;;10.27;2.80;;;;;;;25.91;53.56;101656.41;5082813;28;20093;-71
2022/08/20 10:46:11;;;;;;;9.82;3.08;;;;;;;26.18;50.27;101656.78;5084448;28;20469;-71
2022/08/20 10:48:37;;;;;;;10.20;2.92;;;;;;;26.52;51.37;101650.59;5075978;28;20035;-70
2022/08/20 10:51:03;;;;;;;5.47;2.33;;;;;;;26.82;49.12;101654.16;5064094;28;20131;-71
2022/08/20 10:53:28;;;;;;;8.05;2.75;;;;;;;26.96;47.01;101652.38;5063281;28;20141;-70
2022/08/20 10:55:56;;;;;;;7.22;2.60;;;;;;;26.88;48.15;101658.94;5063134;28;20085;-70
2022/08/20 10:58:21;;;;;;;8.25;2.78;;;;;;;26.63;49.38;101658.47;5065046;28;20052;-71
2022/08/20 11:00:47;;;;;;;9.65;2.70;;;;;;;26.32;50.12;101661.47;5062973;28;20464;-70
2022/08/20 11:03:12;;;;;;;7.38;2.85;;;;;;;26.04;49.65;101664.13;5063034;28;20488;-70
2022/08/20 11:05:38;;;;;;;7.68;2.78;;;;;;;25.74;49.54;101662.31;5075751;28;20056;-70
2022/08/20 11:08:04;;;;;;;9.02;3.00;;;;;;;25.61;50.64;101665.78;5062376;28;20557;-70
2022/08/20 11:10:32;;;;;;;9.80;2.95;;;;;;;25.39;50.69;101665.66;5062765;28;20047;-70
2022/08/20 11:12:58;;;;;;;12.07;3.30;;;;;;;25.67;52.24;101662.25;5063383;28;20036;-71
2022/08/20 11:15:24;;;;;;;10.30;2.70;;;;;;;25.99;50.89;101661.03;5080101;28;20036;-70
2022/08/20 11:17:49;;;;;;;8.90;2.80;;;;;;;25.85;51.53;101656.31;5085085;28;20463;-70
2022/08/20 11:20:17;;;;;;;15.48;3.22;;;;;;;25.62;49.93;101657.22;5068157;28;20033;-71
2022/08/20 11:22:43;;;;;;;13.55;2.70;;;;;;;25.44;50.98;101657.59;5063948;28;20040;-70